createdAt,value
2016-10-28T00:00:09.653Z,1026.72
2016-10-28T00:00:19.649Z,1026.71
2016-10-28T00:00:29.643Z,1026.73
2016-10-28T00:00:39.637Z,1026.72
2016-10-28T00:00:49.632Z,1026.71
2016-10-28T00:00:59.627Z,1026.7
2016-10-28T00:01:09.620Z,1026.67
2016-10-28T00:01:19.615Z,1026.71
2016-10-28T00:01:29.609Z,1026.76
2016-10-28T00:01:39.603Z,1026.72
2016-10-28T00:01:49.599Z,1026.73
2016-10-28T00:01:59.593Z,1026.71
2016-10-28T00:02:09.586Z,1026.7
2016-10-28T00:02:19.581Z,1026.68
2016-10-28T00:02:29.575Z,1026.68
2016-10-28T00:02:39.569Z,1026.67
2016-10-28T00:02:49.564Z,1026.68
2016-10-28T00:02:59.558Z,1026.68
2016-10-28T00:03:09.552Z,1026.64
2016-10-28T00:03:19.545Z,1026.61
2016-10-28T00:03:29.541Z,1026.64
2016-10-28T00:03:39.535Z,1026.62
2016-10-28T00:03:49.530Z,1026.6
2016-10-28T00:03:59.524Z,1026.62
2016-10-28T00:04:09.517Z,1026.62
2016-10-28T00:04:19.543Z,1026.63
2016-10-28T00:04:29.507Z,1026.63
2016-10-28T00:04:39.501Z,1026.63
2016-10-28T00:04:49.497Z,1026.6
2016-10-28T00:04:59.491Z,1026.65
2016-10-28T00:05:09.483Z,1026.64
2016-10-28T00:05:19.479Z,1026.6
2016-10-28T00:05:29.472Z,1026.59
2016-10-28T00:05:39.467Z,1026.6
2016-10-28T00:05:49.464Z,1026.6
2016-10-28T00:05:59.456Z,1026.58
2016-10-28T00:06:09.450Z,1026.64
2016-10-28T00:06:19.446Z,1026.64
2016-10-28T00:06:29.439Z,1026.65
2016-10-28T00:06:39.434Z,1026.64
2016-10-28T00:06:49.429Z,1026.66
2016-10-28T00:06:59.430Z,1026.58
2016-10-28T00:07:09.418Z,1026.65
2016-10-28T00:07:19.412Z,1026.63
2016-10-28T00:07:29.406Z,1026.68
2016-10-28T00:07:39.401Z,1026.65
2016-10-28T00:07:49.394Z,1026.68
2016-10-28T00:07:59.390Z,1026.67
2016-10-28T00:08:09.384Z,1026.67
2016-10-28T00:08:19.377Z,1026.67
2016-10-28T00:08:29.372Z,1026.74
2016-10-28T00:08:39.367Z,1026.72
2016-10-28T00:08:49.360Z,1026.72
2016-10-28T00:08:59.357Z,1026.73
2016-10-28T00:09:09.350Z,1026.72
2016-10-28T00:09:19.344Z,1026.79
2016-10-28T00:09:29.337Z,1026.75
2016-10-28T00:09:39.333Z,1026.74
2016-10-28T00:09:49.326Z,1026.75
2016-10-28T00:09:59.321Z,1026.77
2016-10-28T00:10:09.316Z,1026.77
2016-10-28T00:10:19.310Z,1026.78
2016-10-28T00:10:29.303Z,1026.78
2016-10-28T00:10:39.299Z,1026.77
2016-10-28T00:10:49.317Z,1026.75
2016-10-28T00:10:59.287Z,1026.8
2016-10-28T00:11:09.283Z,1026.74
2016-10-28T00:11:19.276Z,1026.77
2016-10-28T00:11:29.269Z,1026.78
2016-10-28T00:11:39.264Z,1026.81
2016-10-28T00:11:49.259Z,1026.71
2016-10-28T00:11:59.252Z,1026.74
2016-10-28T00:12:09.248Z,1026.8
2016-10-28T00:12:19.242Z,1026.77
2016-10-28T00:12:29.276Z,1026.76
2016-10-28T00:12:39.233Z,1026.78
2016-10-28T00:12:49.225Z,1026.84
2016-10-28T00:12:59.221Z,1026.79
2016-10-28T00:13:09.215Z,1026.73
2016-10-28T00:13:19.207Z,1026.77
2016-10-28T00:13:29.202Z,1026.75
2016-10-28T00:13:39.197Z,1026.8
2016-10-28T00:13:49.191Z,1026.75
2016-10-28T00:13:59.186Z,1026.8
2016-10-28T00:14:09.180Z,1026.77
2016-10-28T00:14:19.175Z,1026.79
2016-10-28T00:14:29.168Z,1026.77
2016-10-28T00:14:39.163Z,1026.82
2016-10-28T00:14:49.158Z,1026.8
2016-10-28T00:14:59.152Z,1026.79
2016-10-28T00:15:09.145Z,1026.76
2016-10-28T00:15:19.139Z,1026.74
2016-10-28T00:15:29.135Z,1026.8
2016-10-28T00:15:39.129Z,1026.78
2016-10-28T00:15:49.123Z,1026.78
2016-10-28T00:15:59.118Z,1026.74
2016-10-28T00:16:09.117Z,1026.79
2016-10-28T00:16:19.108Z,1026.71
2016-10-28T00:16:29.102Z,1026.7
2016-10-28T00:16:39.095Z,1026.69
2016-10-28T00:16:49.090Z,1026.7
2016-10-28T00:16:59.085Z,1026.68
2016-10-28T00:17:09.080Z,1026.69
2016-10-28T00:17:19.072Z,1026.7
2016-10-28T00:17:29.069Z,1026.66
2016-10-28T00:17:39.061Z,1026.68
2016-10-28T00:17:49.056Z,1026.67
2016-10-28T00:17:59.051Z,1026.66
2016-10-28T00:18:09.065Z,1026.67
2016-10-28T00:18:19.041Z,1026.62
2016-10-28T00:18:29.034Z,1026.59
2016-10-28T00:18:39.029Z,1026.65
2016-10-28T00:18:49.022Z,1026.61
2016-10-28T00:18:59.044Z,1026.59
2016-10-28T00:19:09.011Z,1026.6
2016-10-28T00:19:19.004Z,1026.58
2016-10-28T00:19:29.000Z,1026.55
2016-10-28T00:19:39.019Z,1026.52
2016-10-28T00:19:48.989Z,1026.58
2016-10-28T00:19:58.983Z,1026.56
2016-10-28T00:20:08.977Z,1026.56
2016-10-28T00:20:18.973Z,1026.54
2016-10-28T00:20:28.965Z,1026.6
2016-10-28T00:20:38.958Z,1026.58
2016-10-28T00:20:48.955Z,1026.57
2016-10-28T00:20:58.950Z,1026.52
2016-10-28T00:21:08.942Z,1026.53
2016-10-28T00:21:18.939Z,1026.52
2016-10-28T00:21:28.932Z,1026.47
2016-10-28T00:21:38.925Z,1026.51
2016-10-28T00:21:48.921Z,1026.52
2016-10-28T00:21:58.913Z,1026.53
2016-10-28T00:22:08.908Z,1026.54
2016-10-28T00:22:18.904Z,1026.54
2016-10-28T00:22:28.897Z,1026.49
2016-10-28T00:22:38.892Z,1026.52
2016-10-28T00:22:48.885Z,1026.52
2016-10-28T00:22:58.904Z,1026.53
2016-10-28T00:23:08.875Z,1026.61
2016-10-28T00:23:19.205Z,1026.55
2016-10-28T00:23:28.864Z,1026.59
2016-10-28T00:23:38.857Z,1026.56
2016-10-28T00:23:48.851Z,1026.54
2016-10-28T00:23:58.848Z,1026.55
2016-10-28T00:24:08.841Z,1026.54
2016-10-28T00:24:18.835Z,1026.6
2016-10-28T00:24:28.830Z,1026.55
2016-10-28T00:24:38.822Z,1026.58
2016-10-28T00:24:48.817Z,1026.59
2016-10-28T00:24:58.813Z,1026.54
2016-10-28T00:25:08.807Z,1026.52
2016-10-28T00:25:18.802Z,1026.55
2016-10-28T00:25:28.794Z,1026.53
2016-10-28T00:25:38.789Z,1026.51
2016-10-28T00:25:48.784Z,1026.56
2016-10-28T00:25:58.780Z,1026.54
2016-10-28T00:26:08.771Z,1026.55
2016-10-28T00:26:18.767Z,1026.49
2016-10-28T00:26:28.762Z,1026.48
2016-10-28T00:26:38.755Z,1026.52
2016-10-28T00:26:48.750Z,1026.52
2016-10-28T00:26:58.745Z,1026.44
2016-10-28T00:27:08.743Z,1026.54
2016-10-28T00:27:18.732Z,1026.48
2016-10-28T00:27:28.758Z,1026.5
2016-10-28T00:27:38.721Z,1026.43
2016-10-28T00:27:48.715Z,1026.44
2016-10-28T00:27:58.710Z,1026.49
2016-10-28T00:28:08.704Z,1026.45
2016-10-28T00:28:18.700Z,1026.4
2016-10-28T00:28:28.694Z,1026.41
2016-10-28T00:28:38.687Z,1026.44
2016-10-28T00:28:48.683Z,1026.44
2016-10-28T00:28:58.676Z,1026.38
2016-10-28T00:29:08.670Z,1026.41
2016-10-28T00:29:18.665Z,1026.42
2016-10-28T00:29:28.659Z,1026.4
2016-10-28T00:29:38.654Z,1026.46
2016-10-28T00:29:48.648Z,1026.45
2016-10-28T00:29:58.642Z,1026.47
2016-10-28T00:30:08.636Z,1026.45
2016-10-28T00:30:18.631Z,1026.44
2016-10-28T00:30:28.626Z,1026.43
2016-10-28T00:30:38.621Z,1026.47
2016-10-28T00:30:48.613Z,1026.46
2016-10-28T00:30:58.942Z,1026.4
2016-10-28T00:31:08.604Z,1026.41
2016-10-28T00:31:18.596Z,1026.46
2016-10-28T00:31:28.590Z,1026.43
2016-10-28T00:31:38.585Z,1026.48
2016-10-28T00:31:48.578Z,1026.46
2016-10-28T00:31:58.573Z,1026.42
2016-10-28T00:32:08.567Z,1026.4
2016-10-28T00:32:18.562Z,1026.45
2016-10-28T00:32:28.557Z,1026.44
2016-10-28T00:32:38.549Z,1026.49
2016-10-28T00:32:48.545Z,1026.5
2016-10-28T00:32:58.538Z,1026.5
2016-10-28T00:33:08.532Z,1026.46
2016-10-28T00:33:18.528Z,1026.46
2016-10-28T00:33:28.522Z,1026.45
2016-10-28T00:33:38.516Z,1026.48
2016-10-28T00:33:48.509Z,1026.49
2016-10-28T00:33:58.504Z,1026.44
2016-10-28T00:34:08.500Z,1026.49
2016-10-28T00:34:18.494Z,1026.52
2016-10-28T00:34:28.488Z,1026.49
2016-10-28T00:34:38.483Z,1026.48
2016-10-28T00:34:48.477Z,1026.46
2016-10-28T00:34:58.472Z,1026.46
2016-10-28T00:35:08.464Z,1026.48
2016-10-28T00:35:18.460Z,1026.49
2016-10-28T00:35:28.455Z,1026.42
2016-10-28T00:35:38.450Z,1026.41
2016-10-28T00:35:48.444Z,1026.43
2016-10-28T00:35:58.439Z,1026.42
2016-10-28T00:36:08.431Z,1026.4
2016-10-28T00:36:18.426Z,1026.36
2016-10-28T00:36:28.420Z,1026.39
2016-10-28T00:36:38.414Z,1026.31
2016-10-28T00:36:48.410Z,1026.39
2016-10-28T00:36:58.405Z,1026.4
2016-10-28T00:37:08.398Z,1026.35
2016-10-28T00:37:18.394Z,1026.34
2016-10-28T00:37:28.387Z,1026.32
2016-10-28T00:37:38.382Z,1026.31
2016-10-28T00:37:48.377Z,1026.25
2016-10-28T00:37:58.370Z,1026.29
2016-10-28T00:38:08.365Z,1026.26
2016-10-28T00:38:18.359Z,1026.26
2016-10-28T00:38:28.353Z,1026.29
2016-10-28T00:38:38.348Z,1026.22
2016-10-28T00:38:48.342Z,1026.25
2016-10-28T00:38:58.337Z,1026.21
2016-10-28T00:39:08.331Z,1026.22
2016-10-28T00:39:18.326Z,1026.25
2016-10-28T00:39:28.319Z,1026.21
2016-10-28T00:39:38.314Z,1026.22
2016-10-28T00:39:48.310Z,1026.2
2016-10-28T00:39:58.305Z,1026.2
2016-10-28T00:40:08.298Z,1026.25
2016-10-28T00:40:18.293Z,1026.21
2016-10-28T00:40:28.286Z,1026.2
2016-10-28T00:40:38.282Z,1026.19
2016-10-28T00:40:48.304Z,1026.2
2016-10-28T00:40:58.298Z,1026.22
2016-10-28T00:41:08.264Z,1026.2
2016-10-28T00:41:18.259Z,1026.21
2016-10-28T00:41:28.250Z,1026.19
2016-10-28T00:41:38.276Z,1026.14
2016-10-28T00:41:48.242Z,1026.16
2016-10-28T00:41:58.235Z,1026.14
2016-10-28T00:42:08.231Z,1026.15
2016-10-28T00:42:18.226Z,1026.12
2016-10-28T00:42:28.219Z,1026.17
2016-10-28T00:42:38.214Z,1026.15
2016-10-28T00:42:48.208Z,1026.12
2016-10-28T00:42:58.228Z,1026.15
2016-10-28T00:43:08.197Z,1026.14
2016-10-28T00:43:18.191Z,1026.11
2016-10-28T00:43:28.187Z,1026.11
2016-10-28T00:43:38.180Z,1026.15
2016-10-28T00:43:48.175Z,1026.04
2016-10-28T00:43:58.170Z,1026.11
2016-10-28T00:44:08.164Z,1026.12
2016-10-28T00:44:18.157Z,1026.14
2016-10-28T00:44:28.152Z,1026.12
2016-10-28T00:44:38.147Z,1026.08
2016-10-28T00:44:48.141Z,1026.14
2016-10-28T00:44:58.136Z,1026.1
2016-10-28T00:45:08.130Z,1026.1
2016-10-28T00:45:18.126Z,1026.09
2016-10-28T00:45:28.120Z,1026.13
2016-10-28T00:45:38.115Z,1026.04
2016-10-28T00:45:48.109Z,1026.05
2016-10-28T00:45:58.105Z,1026.05
2016-10-28T00:46:08.097Z,1026
2016-10-28T00:46:18.090Z,1026.03
2016-10-28T00:46:28.115Z,1026.05
2016-10-28T00:46:38.080Z,1026.06
2016-10-28T00:46:48.072Z,1026.04
2016-10-28T00:46:58.069Z,1026.06
2016-10-28T00:47:08.064Z,1026.06
2016-10-28T00:47:18.056Z,1026.04
2016-10-28T00:47:28.052Z,1026.05
2016-10-28T00:47:38.047Z,1026.05
2016-10-28T00:47:48.041Z,1026.05
2016-10-28T00:47:58.035Z,1026
2016-10-28T00:48:08.030Z,1026.06
2016-10-28T00:48:18.022Z,1026.06
2016-10-28T00:48:28.018Z,1026.06
2016-10-28T00:48:38.015Z,1026.1
2016-10-28T00:48:48.008Z,1026.05
2016-10-28T00:48:58.002Z,1026.08
2016-10-28T00:49:07.995Z,1026.04
2016-10-28T00:49:17.989Z,1026.05
2016-10-28T00:49:28.018Z,1026.09
2016-10-28T00:49:37.980Z,1026.01
2016-10-28T00:49:47.974Z,1026.04
2016-10-28T00:49:57.970Z,1026.14
2016-10-28T00:50:07.962Z,1026.07
2016-10-28T00:50:17.957Z,1026.11
2016-10-28T00:50:27.950Z,1026.1
2016-10-28T00:50:37.945Z,1026.07
2016-10-28T00:50:48.273Z,1026.09
2016-10-28T00:50:57.934Z,1026.11
2016-10-28T00:51:07.929Z,1026.1
2016-10-28T00:51:17.921Z,1026.09
2016-10-28T00:51:27.918Z,1026.08
2016-10-28T00:51:37.913Z,1026.09
2016-10-28T00:51:47.904Z,1026.1
2016-10-28T00:51:57.899Z,1026.13
2016-10-28T00:52:07.893Z,1026.08
2016-10-28T00:52:17.888Z,1026.09
2016-10-28T00:52:27.885Z,1026.14
2016-10-28T00:52:37.878Z,1026.12
2016-10-28T00:52:47.900Z,1026.07
2016-10-28T00:52:57.868Z,1026.05
2016-10-28T00:53:07.888Z,1026.03
2016-10-28T00:53:17.856Z,1026.09
2016-10-28T00:53:27.850Z,1026.06
2016-10-28T00:53:37.843Z,1026.08
2016-10-28T00:53:47.839Z,1026.09
2016-10-28T00:53:57.833Z,1026.1
2016-10-28T00:54:07.828Z,1026.06
2016-10-28T00:54:17.825Z,1026.07
2016-10-28T00:54:27.818Z,1026.09
2016-10-28T00:54:37.811Z,1026.09
2016-10-28T00:54:47.806Z,1026.12
2016-10-28T00:54:57.802Z,1026.12
2016-10-28T00:55:07.795Z,1026.16
2016-10-28T00:55:17.788Z,1026.17
2016-10-28T00:55:27.784Z,1026.19
2016-10-28T00:55:37.778Z,1026.21
2016-10-28T00:55:47.771Z,1026.18
2016-10-28T00:55:57.766Z,1026.18
2016-10-28T00:56:07.760Z,1026.21
2016-10-28T00:56:17.755Z,1026.22
2016-10-28T00:56:27.750Z,1026.25
2016-10-28T00:56:37.743Z,1026.23
2016-10-28T00:56:47.739Z,1026.28
2016-10-28T00:56:57.732Z,1026.29
2016-10-28T00:57:07.726Z,1026.23
2016-10-28T00:57:17.721Z,1026.34
2016-10-28T00:57:27.716Z,1026.32
2016-10-28T00:57:37.710Z,1026.27
2016-10-28T00:57:47.706Z,1026.28
2016-10-28T00:57:57.699Z,1026.27
2016-10-28T00:58:07.694Z,1026.36
2016-10-28T00:58:17.688Z,1026.34
2016-10-28T00:58:27.685Z,1026.32
2016-10-28T00:58:37.678Z,1026.38
2016-10-28T00:58:47.670Z,1026.31
2016-10-28T00:58:57.666Z,1026.36
2016-10-28T00:59:07.659Z,1026.34
2016-10-28T00:59:17.652Z,1026.39
2016-10-28T00:59:27.648Z,1026.31
2016-10-28T00:59:37.643Z,1026.4
2016-10-28T00:59:47.638Z,1026.35
2016-10-28T00:59:57.632Z,1026.42
2016-10-28T01:00:07.624Z,1026.39
2016-10-28T01:00:17.623Z,1026.4
2016-10-28T01:00:27.615Z,1026.43
2016-10-28T01:00:37.608Z,1026.38
2016-10-28T01:00:47.604Z,1026.42
2016-10-28T01:00:57.597Z,1026.44
2016-10-28T01:01:07.593Z,1026.39
2016-10-28T01:01:17.587Z,1026.44
2016-10-28T01:01:27.582Z,1026.39
2016-10-28T01:01:37.609Z,1026.46
2016-10-28T01:01:47.570Z,1026.45
2016-10-28T01:01:57.565Z,1026.43
2016-10-28T01:02:07.561Z,1026.43
2016-10-28T01:02:17.554Z,1026.4
2016-10-28T01:02:27.580Z,1026.39
2016-10-28T01:02:37.543Z,1026.44
2016-10-28T01:02:47.536Z,1026.41
2016-10-28T01:02:57.530Z,1026.49
2016-10-28T01:03:07.527Z,1026.46
2016-10-28T01:03:17.519Z,1026.48
2016-10-28T01:03:27.514Z,1026.46
2016-10-28T01:03:37.510Z,1026.4
2016-10-28T01:03:47.503Z,1026.43
2016-10-28T01:03:57.498Z,1026.45
2016-10-28T01:04:07.491Z,1026.48
2016-10-28T01:04:17.487Z,1026.5
2016-10-28T01:04:27.479Z,1026.5
2016-10-28T01:04:37.473Z,1026.49
2016-10-28T01:04:47.470Z,1026.45
2016-10-28T01:04:57.464Z,1026.51
2016-10-28T01:05:07.793Z,1026.51
2016-10-28T01:05:17.452Z,1026.46
2016-10-28T01:05:27.446Z,1026.4
2016-10-28T01:05:37.441Z,1026.43
2016-10-28T01:05:47.436Z,1026.46
2016-10-28T01:05:57.430Z,1026.46
2016-10-28T01:06:07.424Z,1026.42
2016-10-28T01:06:17.420Z,1026.44
2016-10-28T01:06:27.419Z,1026.44
2016-10-28T01:06:37.407Z,1026.44
2016-10-28T01:06:47.402Z,1026.42
2016-10-28T01:06:57.396Z,1026.4
2016-10-28T01:07:07.391Z,1026.47
2016-10-28T01:07:17.386Z,1026.45
2016-10-28T01:07:27.416Z,1026.41
2016-10-28T01:07:37.374Z,1026.42
2016-10-28T01:07:47.368Z,1026.41
2016-10-28T01:07:57.363Z,1026.43
2016-10-28T01:08:07.356Z,1026.45
2016-10-28T01:08:17.351Z,1026.47
2016-10-28T01:08:27.346Z,1026.46
2016-10-28T01:08:37.340Z,1026.53
2016-10-28T01:08:47.336Z,1026.44
2016-10-28T01:08:57.329Z,1026.47
2016-10-28T01:09:07.323Z,1026.47
2016-10-28T01:09:17.319Z,1026.46
2016-10-28T01:09:27.312Z,1026.53
2016-10-28T01:09:37.308Z,1026.49
2016-10-28T01:09:47.301Z,1026.52
2016-10-28T01:09:57.294Z,1026.52
2016-10-28T01:10:07.291Z,1026.53
2016-10-28T01:10:17.285Z,1026.56
2016-10-28T01:10:27.279Z,1026.53
2016-10-28T01:10:37.275Z,1026.53
2016-10-28T01:10:47.266Z,1026.58
2016-10-28T01:10:57.262Z,1026.53
2016-10-28T01:11:07.256Z,1026.57
2016-10-28T01:11:17.250Z,1026.57
2016-10-28T01:11:27.245Z,1026.56
2016-10-28T01:11:37.240Z,1026.58
2016-10-28T01:11:47.234Z,1026.56
2016-10-28T01:11:57.230Z,1026.51
2016-10-28T01:12:07.224Z,1026.56
2016-10-28T01:12:17.218Z,1026.56
2016-10-28T01:12:27.213Z,1026.54
2016-10-28T01:12:37.207Z,1026.54
2016-10-28T01:12:47.202Z,1026.53
2016-10-28T01:12:57.196Z,1026.54
2016-10-28T01:13:07.190Z,1026.54
2016-10-28T01:13:17.184Z,1026.53
2016-10-28T01:13:27.177Z,1026.49
2016-10-28T01:13:37.173Z,1026.51
2016-10-28T01:13:47.167Z,1026.5
2016-10-28T01:13:57.162Z,1026.52
2016-10-28T01:14:07.158Z,1026.53
2016-10-28T01:14:17.151Z,1026.47
2016-10-28T01:14:27.146Z,1026.46
2016-10-28T01:14:37.139Z,1026.47
2016-10-28T01:14:47.134Z,1026.53
2016-10-28T01:14:57.128Z,1026.51
2016-10-28T01:15:07.124Z,1026.56
2016-10-28T01:15:17.117Z,1026.53
2016-10-28T01:15:27.144Z,1026.54
2016-10-28T01:15:37.107Z,1026.53
2016-10-28T01:15:47.100Z,1026.52
2016-10-28T01:15:57.097Z,1026.48
2016-10-28T01:16:07.089Z,1026.54
2016-10-28T01:16:17.084Z,1026.49
2016-10-28T01:16:27.081Z,1026.49
2016-10-28T01:16:37.073Z,1026.45
2016-10-28T01:16:47.066Z,1026.5
2016-10-28T01:16:57.061Z,1026.48
2016-10-28T01:17:07.057Z,1026.48
2016-10-28T01:17:17.050Z,1026.44
2016-10-28T01:17:27.045Z,1026.44
2016-10-28T01:17:37.040Z,1026.47
2016-10-28T01:17:47.035Z,1026.49
2016-10-28T01:17:57.026Z,1026.45
2016-10-28T01:18:07.024Z,1026.46
2016-10-28T01:18:17.017Z,1026.47
2016-10-28T01:18:27.011Z,1026.49
2016-10-28T01:18:37.005Z,1026.47
2016-10-28T01:18:46.999Z,1026.46
2016-10-28T01:18:56.994Z,1026.43
2016-10-28T01:19:06.989Z,1026.45
2016-10-28T01:19:16.984Z,1026.48
2016-10-28T01:19:26.979Z,1026.44
2016-10-28T01:19:36.972Z,1026.42
2016-10-28T01:19:46.966Z,1026.49
2016-10-28T01:19:56.961Z,1026.4
2016-10-28T01:20:06.955Z,1026.42
2016-10-28T01:20:16.950Z,1026.42
2016-10-28T01:20:26.946Z,1026.39
2016-10-28T01:20:36.939Z,1026.42
2016-10-28T01:20:46.933Z,1026.43
2016-10-28T01:20:57.273Z,1026.44
2016-10-28T01:21:06.922Z,1026.39
2016-10-28T01:21:16.917Z,1026.39
2016-10-28T01:21:26.910Z,1026.34
2016-10-28T01:21:36.905Z,1026.4
2016-10-28T01:21:46.899Z,1026.36
2016-10-28T01:21:56.893Z,1026.37
2016-10-28T01:22:06.889Z,1026.4
2016-10-28T01:22:16.885Z,1026.41
2016-10-28T01:22:26.878Z,1026.4
2016-10-28T01:22:36.873Z,1026.4
2016-10-28T01:22:46.866Z,1026.34
2016-10-28T01:22:56.859Z,1026.4
2016-10-28T01:23:06.855Z,1026.34
2016-10-28T01:23:16.849Z,1026.37
2016-10-28T01:23:26.844Z,1026.34
2016-10-28T01:23:36.838Z,1026.31
2016-10-28T01:23:46.832Z,1026.36
2016-10-28T01:23:56.830Z,1026.35
2016-10-28T01:24:06.822Z,1026.26
2016-10-28T01:24:16.816Z,1026.36
2016-10-28T01:24:26.812Z,1026.33
2016-10-28T01:24:36.804Z,1026.29
2016-10-28T01:24:46.799Z,1026.31
2016-10-28T01:24:56.794Z,1026.32
2016-10-28T01:25:06.818Z,1026.34
2016-10-28T01:25:16.784Z,1026.31
2016-10-28T01:25:26.810Z,1026.32
2016-10-28T01:25:36.770Z,1026.31
2016-10-28T01:25:46.766Z,1026.29
2016-10-28T01:25:56.761Z,1026.3
2016-10-28T01:26:06.785Z,1026.29
2016-10-28T01:26:16.751Z,1026.29
2016-10-28T01:26:26.744Z,1026.28
2016-10-28T01:26:36.738Z,1026.28
2016-10-28T01:26:46.732Z,1026.28
2016-10-28T01:26:56.727Z,1026.3
2016-10-28T01:27:06.720Z,1026.28
2016-10-28T01:27:16.716Z,1026.24
2016-10-28T01:27:26.710Z,1026.23
2016-10-28T01:27:36.704Z,1026.25
2016-10-28T01:27:46.699Z,1026.23
2016-10-28T01:27:56.694Z,1026.29
2016-10-28T01:28:06.688Z,1026.28
2016-10-28T01:28:16.682Z,1026.27
2016-10-28T01:28:26.715Z,1026.33
2016-10-28T01:28:36.671Z,1026.27
2016-10-28T01:28:46.664Z,1026.27
2016-10-28T01:28:56.660Z,1026.21
2016-10-28T01:29:06.654Z,1026.22
2016-10-28T01:29:16.649Z,1026.17
2016-10-28T01:29:26.644Z,1026.22
2016-10-28T01:29:36.638Z,1026.24
2016-10-28T01:29:46.668Z,1026.25
2016-10-28T01:29:56.626Z,1026.23
2016-10-28T01:30:06.621Z,1026.21
2016-10-28T01:30:16.616Z,1026.22
2016-10-28T01:30:26.610Z,1026.2
2016-10-28T01:30:36.633Z,1026.25
2016-10-28T01:30:46.599Z,1026.29
2016-10-28T01:30:56.594Z,1026.25
2016-10-28T01:31:06.617Z,1026.23
2016-10-28T01:31:16.583Z,1026.21
2016-10-28T01:31:26.609Z,1026.23
2016-10-28T01:31:36.574Z,1026.26
2016-10-28T01:31:46.566Z,1026.21
2016-10-28T01:31:56.561Z,1026.22
2016-10-28T01:32:06.584Z,1026.24
2016-10-28T01:32:16.550Z,1026.23
2016-10-28T01:32:26.543Z,1026.25
2016-10-28T01:32:36.536Z,1026.23
2016-10-28T01:32:46.532Z,1026.2
2016-10-28T01:32:56.527Z,1026.21
2016-10-28T01:33:06.520Z,1026.2
2016-10-28T01:33:16.516Z,1026.18
2016-10-28T01:33:26.510Z,1026.21
2016-10-28T01:33:36.506Z,1026.17
2016-10-28T01:33:46.498Z,1026.22
2016-10-28T01:33:56.491Z,1026.19
2016-10-28T01:34:06.489Z,1026.22
2016-10-28T01:34:16.483Z,1026.26
2016-10-28T01:34:26.476Z,1026.26
2016-10-28T01:34:36.472Z,1026.17
2016-10-28T01:34:46.465Z,1026.2
2016-10-28T01:34:56.498Z,1026.19
2016-10-28T01:35:06.455Z,1026.2
2016-10-28T01:35:16.448Z,1026.22
2016-10-28T01:35:26.442Z,1026.17
2016-10-28T01:35:36.439Z,1026.17
2016-10-28T01:35:46.433Z,1026.17
2016-10-28T01:35:56.427Z,1026.2
2016-10-28T01:36:06.420Z,1026.16
2016-10-28T01:36:16.414Z,1026.2
2016-10-28T01:36:26.410Z,1026.17
2016-10-28T01:36:36.404Z,1026.16
2016-10-28T01:36:46.399Z,1026.17
2016-10-28T01:36:56.395Z,1026.15
2016-10-28T01:37:06.389Z,1026.18
2016-10-28T01:37:16.382Z,1026.18
2016-10-28T01:37:26.375Z,1026.16
2016-10-28T01:37:36.370Z,1026.14
2016-10-28T01:37:46.365Z,1026.14
2016-10-28T01:37:56.359Z,1026.16
2016-10-28T01:38:06.355Z,1026.21
2016-10-28T01:38:16.348Z,1026.13
2016-10-28T01:38:26.345Z,1026.14
2016-10-28T01:38:36.339Z,1026.16
2016-10-28T01:38:46.331Z,1026.16
2016-10-28T01:38:56.326Z,1026.16
2016-10-28T01:39:06.320Z,1026.11
2016-10-28T01:39:16.315Z,1026.11
2016-10-28T01:39:26.309Z,1026.08
2016-10-28T01:39:36.304Z,1026.09
2016-10-28T01:39:46.297Z,1026.05
2016-10-28T01:39:56.293Z,1026.07
2016-10-28T01:40:06.313Z,1026.06
2016-10-28T01:40:16.282Z,1026.06
2016-10-28T01:40:26.276Z,1026.07
2016-10-28T01:40:36.270Z,1026.04
2016-10-28T01:40:46.265Z,1026.07
2016-10-28T01:40:56.260Z,1026.01
2016-10-28T01:41:06.282Z,1026.01
2016-10-28T01:41:16.248Z,1025.99
2016-10-28T01:41:26.242Z,1025.98
2016-10-28T01:41:36.236Z,1026.01
2016-10-28T01:41:46.233Z,1025.97
2016-10-28T01:41:56.228Z,1025.99
2016-10-28T01:42:06.221Z,1025.95
2016-10-28T01:42:16.217Z,1025.96
2016-10-28T01:42:26.209Z,1025.97
2016-10-28T01:42:36.204Z,1025.96
2016-10-28T01:42:46.198Z,1025.98
2016-10-28T01:42:56.193Z,1025.97
2016-10-28T01:43:06.187Z,1025.95
2016-10-28T01:43:16.181Z,1025.94
2016-10-28T01:43:26.176Z,1025.96
2016-10-28T01:43:36.171Z,1025.94
2016-10-28T01:43:46.165Z,1025.99
2016-10-28T01:43:56.160Z,1025.96
2016-10-28T01:44:06.153Z,1025.95
2016-10-28T01:44:16.147Z,1025.97
2016-10-28T01:44:26.143Z,1025.96
2016-10-28T01:44:36.138Z,1025.94
2016-10-28T01:44:46.131Z,1025.99
2016-10-28T01:44:56.126Z,1025.95
2016-10-28T01:45:06.120Z,1025.96
2016-10-28T01:45:16.115Z,1025.99
2016-10-28T01:45:26.108Z,1025.96
2016-10-28T01:45:36.103Z,1026
2016-10-28T01:45:46.099Z,1025.99
2016-10-28T01:45:56.093Z,1026.04
2016-10-28T01:46:06.087Z,1026.05
2016-10-28T01:46:16.081Z,1026.02
2016-10-28T01:46:26.077Z,1026.03
2016-10-28T01:46:36.070Z,1026.06
2016-10-28T01:46:46.064Z,1026.08
2016-10-28T01:46:56.060Z,1026.08
2016-10-28T01:47:06.061Z,1026.07
2016-10-28T01:47:16.050Z,1026
2016-10-28T01:47:26.043Z,1026.05
2016-10-28T01:47:36.038Z,1026.07
2016-10-28T01:47:46.031Z,1026.07
2016-10-28T01:47:56.026Z,1026.07
2016-10-28T01:48:06.045Z,1026.04
2016-10-28T01:48:16.015Z,1026.04
2016-10-28T01:48:26.048Z,1026.08
2016-10-28T01:48:36.003Z,1026.05
2016-10-28T01:48:45.997Z,1026.02
2016-10-28T01:48:55.995Z,1025.99
2016-10-28T01:49:05.987Z,1026.03
2016-10-28T01:49:15.983Z,1026.03
2016-10-28T01:49:26.005Z,1026.04
2016-10-28T01:49:35.970Z,1025.98
2016-10-28T01:49:45.964Z,1026.07
2016-10-28T01:49:55.959Z,1025.99
2016-10-28T01:50:05.953Z,1026.02
2016-10-28T01:50:16.284Z,1026.05
2016-10-28T01:50:25.942Z,1025.99
2016-10-28T01:50:35.936Z,1025.92
2016-10-28T01:50:45.962Z,1025.94
2016-10-28T01:50:55.927Z,1025.96
2016-10-28T01:51:05.921Z,1025.99
2016-10-28T01:51:15.915Z,1026.01
2016-10-28T01:51:25.942Z,1025.96
2016-10-28T01:51:35.905Z,1026.02
2016-10-28T01:51:45.899Z,1025.98
2016-10-28T01:51:55.893Z,1025.98
2016-10-28T01:52:05.886Z,1026
2016-10-28T01:52:15.882Z,1026.05
2016-10-28T01:52:25.876Z,1025.98
2016-10-28T01:52:35.872Z,1025.97
2016-10-28T01:52:45.902Z,1026.02
2016-10-28T01:52:55.860Z,1026.02
2016-10-28T01:53:05.852Z,1026
2016-10-28T01:53:15.848Z,1026.05
2016-10-28T01:53:25.842Z,1026.05
2016-10-28T01:53:35.836Z,1026.03
2016-10-28T01:53:45.832Z,1026.05
2016-10-28T01:53:55.825Z,1026.04
2016-10-28T01:54:05.820Z,1026.02
2016-10-28T01:54:15.815Z,1025.99
2016-10-28T01:54:25.809Z,1026.04
2016-10-28T01:54:35.803Z,1026.06
2016-10-28T01:54:45.796Z,1026.03
2016-10-28T01:54:55.792Z,1026
2016-10-28T01:55:05.812Z,1026.03
2016-10-28T01:55:15.782Z,1026.03
2016-10-28T01:55:25.795Z,1026.02
2016-10-28T01:55:35.772Z,1026
2016-10-28T01:55:45.766Z,1025.97
2016-10-28T01:55:55.758Z,1026.05
2016-10-28T01:56:05.753Z,1026.02
2016-10-28T01:56:15.749Z,1026.04
2016-10-28T01:56:25.743Z,1026.04
2016-10-28T01:56:35.738Z,1025.96
2016-10-28T01:56:45.731Z,1026.02
2016-10-28T01:56:55.727Z,1026.02
2016-10-28T01:57:05.720Z,1025.96
2016-10-28T01:57:15.715Z,1025.98
2016-10-28T01:57:25.708Z,1026.02
2016-10-28T01:57:35.705Z,1026.03
2016-10-28T01:57:45.698Z,1026.03
2016-10-28T01:57:55.692Z,1026.05
2016-10-28T01:58:05.687Z,1026.02
2016-10-28T01:58:15.682Z,1025.96
2016-10-28T01:58:25.675Z,1025.96
2016-10-28T01:58:35.670Z,1025.92
2016-10-28T01:58:45.663Z,1025.92
2016-10-28T01:58:55.660Z,1026.02
2016-10-28T01:59:05.654Z,1025.98
2016-10-28T01:59:15.648Z,1025.95
2016-10-28T01:59:25.644Z,1025.95
2016-10-28T01:59:35.638Z,1025.94
2016-10-28T01:59:45.632Z,1025.97
2016-10-28T01:59:55.625Z,1025.94
2016-10-28T02:00:05.621Z,1025.97
2016-10-28T02:00:15.615Z,1025.99
2016-10-28T02:00:25.610Z,1025.93
2016-10-28T02:00:35.603Z,1025.97
2016-10-28T02:00:45.598Z,1025.96
2016-10-28T02:00:55.593Z,1025.94
2016-10-28T02:01:05.587Z,1025.99
2016-10-28T02:01:15.583Z,1025.95
2016-10-28T02:01:25.577Z,1025.96